sensor_id;sensor_type;location;lat;lon;timestamp;temperature;humidity
13652;DHT22;6899;51.546;6.912;2023-08-21T00:00:46;17.50;99.90
13652;DHT22;6899;51.546;6.912;2023-08-21T00:03:13;17.50;99.90
13652;DHT22;6899;51.546;6.912;2023-08-21T00:05:40;17.60;99.90
13652;DHT22;6899;51.546;6.912;2023-08-21T00:08:07;17.70;99.90
13652;DHT22;6899;51.546;6.912;2023-08-21T00:10:37;17.80;99.90
13652;DHT22;6899;51.546;6.912;2023-08-21T00:13:04;17.90;99.90
13652;DHT22;6899;51.546;6.912;2023-08-21T00:15:32;18.10;99.90
13652;DHT22;6899;51.546;6.912;2023-08-21T00:17:59;18.10;99.90
13652;DHT22;6899;51.546;6.912;2023-08-21T00:20:27;18.10;99.90
13652;DHT22;6899;51.546;6.912;2023-08-21T00:22:53;18.10;99.90
13652;DHT22;6899;51.546;6.912;2023-08-21T00:25:21;18.00;99.90
13652;DHT22;6899;51.546;6.912;2023-08-21T00:27:48;17.90;99.90
13652;DHT22;6899;51.546;6.912;2023-08-21T00:30:15;17.70;99.90
13652;DHT22;6899;51.546;6.912;2023-08-21T00:32:43;17.70;99.90
13652;DHT22;6899;51.546;6.912;2023-08-21T00:35:10;17.70;99.90
13652;DHT22;6899;51.546;6.912;2023-08-21T00:37:37;17.60;99.90
13652;DHT22;6899;51.546;6.912;2023-08-21T00:40:04;17.50;99.90
13652;DHT22;6899;51.546;6.912;2023-08-21T00:42:31;17.40;99.90
13652;DHT22;6899;51.546;6.912;2023-08-21T00:44:58;17.30;99.90
13652;DHT22;6899;51.546;6.912;2023-08-21T00:47:25;17.40;99.90
13652;DHT22;6899;51.546;6.912;2023-08-21T00:49:53;17.50;99.90
13652;DHT22;6899;51.546;6.912;2023-08-21T00:52:20;17.50;99.90
13652;DHT22;6899;51.546;6.912;2023-08-21T00:54:47;17.60;99.90
13652;DHT22;6899;51.546;6.912;2023-08-21T00:57:15;17.60;99.90
13652;DHT22;6899;51.546;6.912;2023-08-21T00:59:42;17.50;99.90
13652;DHT22;6899;51.546;6.912;2023-08-21T01:02:09;17.50;99.90
13652;DHT22;6899;51.546;6.912;2023-08-21T01:04:37;17.40;99.90
13652;DHT22;6899;51.546;6.912;2023-08-21T01:07:04;17.40;99.90
13652;DHT22;6899;51.546;6.912;2023-08-21T01:09:41;17.30;99.90
13652;DHT22;6899;51.546;6.912;2023-08-21T01:12:15;17.40;99.90
13652;DHT22;6899;51.546;6.912;2023-08-21T01:14:51;17.40;99.90
13652;DHT22;6899;51.546;6.912;2023-08-21T01:17:22;17.40;99.90
13652;DHT22;6899;51.546;6.912;2023-08-21T01:19:50;17.40;99.90
13652;DHT22;6899;51.546;6.912;2023-08-21T01:22:19;17.40;99.90
13652;DHT22;6899;51.546;6.912;2023-08-21T01:24:47;17.40;99.90
13652;DHT22;6899;51.546;6.912;2023-08-21T01:27:14;17.40;99.90
13652;DHT22;6899;51.546;6.912;2023-08-21T01:29:41;17.40;99.90
13652;DHT22;6899;51.546;6.912;2023-08-21T01:32:13;17.40;99.90
13652;DHT22;6899;51.546;6.912;2023-08-21T01:34:42;17.30;99.90
13652;DHT22;6899;51.546;6.912;2023-08-21T01:37:10;17.40;99.90
13652;DHT22;6899;51.546;6.912;2023-08-21T01:39:37;17.20;99.90
13652;DHT22;6899;51.546;6.912;2023-08-21T01:42:06;17.20;99.90
13652;DHT22;6899;51.546;6.912;2023-08-21T01:44:32;17.10;99.90
13652;DHT22;6899;51.546;6.912;2023-08-21T01:46:59;17.00;99.90
13652;DHT22;6899;51.546;6.912;2023-08-21T01:49:26;17.00;99.90
13652;DHT22;6899;51.546;6.912;2023-08-21T01:51:53;16.90;99.90
13652;DHT22;6899;51.546;6.912;2023-08-21T01:54:20;16.80;99.90
13652;DHT22;6899;51.546;6.912;2023-08-21T01:56:46;16.80;99.90
13652;DHT22;6899;51.546;6.912;2023-08-21T01:59:16;16.70;99.90
13652;DHT22;6899;51.546;6.912;2023-08-21T02:01:43;16.70;99.90
13652;DHT22;6899;51.546;6.912;2023-08-21T02:04:10;16.70;99.90
13652;DHT22;6899;51.546;6.912;2023-08-21T02:06:36;16.60;99.90
13652;DHT22;6899;51.546;6.912;2023-08-21T02:09:03;16.70;99.90
13652;DHT22;6899;51.546;6.912;2023-08-21T02:11:30;16.70;99.90
13652;DHT22;6899;51.546;6.912;2023-08-21T02:13:57;16.80;99.90
13652;DHT22;6899;51.546;6.912;2023-08-21T02:16:25;16.70;99.90
13652;DHT22;6899;51.546;6.912;2023-08-21T02:18:52;16.60;99.90
13652;DHT22;6899;51.546;6.912;2023-08-21T02:21:19;16.60;99.90
13652;DHT22;6899;51.546;6.912;2023-08-21T02:23:46;16.50;99.90
13652;DHT22;6899;51.546;6.912;2023-08-21T02:26:13;16.40;99.90
13652;DHT22;6899;51.546;6.912;2023-08-21T02:28:40;16.50;99.90
13652;DHT22;6899;51.546;6.912;2023-08-21T02:31:09;16.40;99.90
13652;DHT22;6899;51.546;6.912;2023-08-21T02:33:40;16.40;99.90
13652;DHT22;6899;51.546;6.912;2023-08-21T02:36:06;16.50;99.90
13652;DHT22;6899;51.546;6.912;2023-08-21T02:38:33;16.40;99.90
13652;DHT22;6899;51.546;6.912;2023-08-21T02:41:00;16.50;99.90
13652;DHT22;6899;51.546;6.912;2023-08-21T02:43:27;16.50;99.90
13652;DHT22;6899;51.546;6.912;2023-08-21T02:45:54;16.40;99.90
13652;DHT22;6899;51.546;6.912;2023-08-21T02:48:20;16.50;99.90
13652;DHT22;6899;51.546;6.912;2023-08-21T02:50:49;16.60;99.90
13652;DHT22;6899;51.546;6.912;2023-08-21T02:53:15;16.60;99.90
13652;DHT22;6899;51.546;6.912;2023-08-21T02:55:42;16.70;99.90
13652;DHT22;6899;51.546;6.912;2023-08-21T02:58:09;16.80;99.90
13652;DHT22;6899;51.546;6.912;2023-08-21T03:00:36;16.90;99.90
13652;DHT22;6899;51.546;6.912;2023-08-21T03:03:03;16.90;99.90
13652;DHT22;6899;51.546;6.912;2023-08-21T03:05:30;16.90;99.90
13652;DHT22;6899;51.546;6.912;2023-08-21T03:07:58;16.90;99.90
13652;DHT22;6899;51.546;6.912;2023-08-21T03:10:25;16.80;99.90
13652;DHT22;6899;51.546;6.912;2023-08-21T03:12:54;16.70;99.90
13652;DHT22;6899;51.546;6.912;2023-08-21T03:15:21;16.80;99.90
13652;DHT22;6899;51.546;6.912;2023-08-21T03:17:48;16.80;99.90
13652;DHT22;6899;51.546;6.912;2023-08-21T03:20:15;16.80;99.90
13652;DHT22;6899;51.546;6.912;2023-08-21T03:22:43;16.70;99.90
13652;DHT22;6899;51.546;6.912;2023-08-21T03:25:11;16.80;99.90
13652;DHT22;6899;51.546;6.912;2023-08-21T03:27:37;16.70;99.90
13652;DHT22;6899;51.546;6.912;2023-08-21T03:30:06;16.70;99.90
13652;DHT22;6899;51.546;6.912;2023-08-21T03:32:33;16.70;99.90
13652;DHT22;6899;51.546;6.912;2023-08-21T03:35:00;16.70;99.90
13652;DHT22;6899;51.546;6.912;2023-08-21T03:37:27;16.80;99.90
13652;DHT22;6899;51.546;6.912;2023-08-21T03:39:53;16.90;99.90
13652;DHT22;6899;51.546;6.912;2023-08-21T03:42:22;16.90;99.90
13652;DHT22;6899;51.546;6.912;2023-08-21T03:44:49;16.90;99.90
13652;DHT22;6899;51.546;6.912;2023-08-21T03:47:15;16.80;99.90
13652;DHT22;6899;51.546;6.912;2023-08-21T03:49:42;16.50;99.90
13652;DHT22;6899;51.546;6.912;2023-08-21T03:52:09;16.50;99.90
13652;DHT22;6899;51.546;6.912;2023-08-21T03:54:36;16.50;99.90
13652;DHT22;6899;51.546;6.912;2023-08-21T03:57:03;16.40;99.90
13652;DHT22;6899;51.546;6.912;2023-08-21T03:59:31;16.40;99.90
13652;DHT22;6899;51.546;6.912;2023-08-21T04:01:58;16.40;99.90
13652;DHT22;6899;51.546;6.912;2023-08-21T04:04:25;16.40;99.90
13652;DHT22;6899;51.546;6.912;2023-08-21T04:06:51;16.40;99.90
13652;DHT22;6899;51.546;6.912;2023-08-21T04:09:18;16.30;99.90
13652;DHT22;6899;51.546;6.912;2023-08-21T04:11:45;16.30;99.90
13652;DHT22;6899;51.546;6.912;2023-08-21T04:14:12;16.30;99.90
13652;DHT22;6899;51.546;6.912;2023-08-21T04:16:40;16.30;99.90
13652;DHT22;6899;51.546;6.912;2023-08-21T04:19:07;16.30;99.90
13652;DHT22;6899;51.546;6.912;2023-08-21T04:21:34;16.40;99.90
13652;DHT22;6899;51.546;6.912;2023-08-21T04:24:00;16.40;99.90
13652;DHT22;6899;51.546;6.912;2023-08-21T04:26:27;16.40;99.90
13652;DHT22;6899;51.546;6.912;2023-08-21T04:28:54;16.50;99.90
13652;DHT22;6899;51.546;6.912;2023-08-21T04:31:21;16.60;99.90
13652;DHT22;6899;51.546;6.912;2023-08-21T04:33:49;16.60;99.90
13652;DHT22;6899;51.546;6.912;2023-08-21T04:36:16;16.60;99.90
13652;DHT22;6899;51.546;6.912;2023-08-21T04:38:43;16.70;99.90
13652;DHT22;6899;51.546;6.912;2023-08-21T04:41:10;16.60;99.90
13652;DHT22;6899;51.546;6.912;2023-08-21T04:43:37;16.50;99.90
13652;DHT22;6899;51.546;6.912;2023-08-21T04:46:04;16.50;99.90
13652;DHT22;6899;51.546;6.912;2023-08-21T04:48:31;16.60;99.90
13652;DHT22;6899;51.546;6.912;2023-08-21T04:50:59;16.60;99.90
13652;DHT22;6899;51.546;6.912;2023-08-21T04:53:26;16.60;99.90
13652;DHT22;6899;51.546;6.912;2023-08-21T04:55:53;16.60;99.90
13652;DHT22;6899;51.546;6.912;2023-08-21T04:58:20;16.50;99.90
13652;DHT22;6899;51.546;6.912;2023-08-21T05:00:47;16.60;99.90
13652;DHT22;6899;51.546;6.912;2023-08-21T05:03:13;16.50;99.90
13652;DHT22;6899;51.546;6.912;2023-08-21T05:05:40;16.40;99.90
13652;DHT22;6899;51.546;6.912;2023-08-21T05:08:08;16.40;99.90
13652;DHT22;6899;51.546;6.912;2023-08-21T05:10:35;16.50;99.90
13652;DHT22;6899;51.546;6.912;2023-08-21T05:13:04;16.60;99.90
13652;DHT22;6899;51.546;6.912;2023-08-21T05:15:31;16.80;99.90
13652;DHT22;6899;51.546;6.912;2023-08-21T05:17:58;16.80;99.90
13652;DHT22;6899;51.546;6.912;2023-08-21T05:20:25;16.90;99.90
13652;DHT22;6899;51.546;6.912;2023-08-21T05:22:51;16.90;99.90
13652;DHT22;6899;51.546;6.912;2023-08-21T05:25:19;17.00;99.90
13652;DHT22;6899;51.546;6.912;2023-08-21T05:27:46;17.20;99.90
13652;DHT22;6899;51.546;6.912;2023-08-21T05:30:13;17.40;99.90
13652;DHT22;6899;51.546;6.912;2023-08-21T05:32:40;17.70;99.90
13652;DHT22;6899;51.546;6.912;2023-08-21T05:35:08;17.90;99.90
13652;DHT22;6899;51.546;6.912;2023-08-21T05:37:34;18.30;99.90
13652;DHT22;6899;51.546;6.912;2023-08-21T05:40:02;18.70;99.90
13652;DHT22;6899;51.546;6.912;2023-08-21T05:42:31;18.80;99.90
13652;DHT22;6899;51.546;6.912;2023-08-21T05:44:57;19.00;99.90
13652;DHT22;6899;51.546;6.912;2023-08-21T05:47:24;19.20;99.90
13652;DHT22;6899;51.546;6.912;2023-08-21T05:49:52;19.10;99.90
13652;DHT22;6899;51.546;6.912;2023-08-21T05:52:20;19.10;99.90
13652;DHT22;6899;51.546;6.912;2023-08-21T05:54:47;18.80;99.90
13652;DHT22;6899;51.546;6.912;2023-08-21T05:57:14;18.70;99.90
13652;DHT22;6899;51.546;6.912;2023-08-21T05:59:45;18.80;99.90
13652;DHT22;6899;51.546;6.912;2023-08-21T06:02:12;19.00;99.90
13652;DHT22;6899;51.546;6.912;2023-08-21T06:04:47;19.50;99.90
13652;DHT22;6899;51.546;6.912;2023-08-21T06:07:13;19.60;99.90
13652;DHT22;6899;51.546;6.912;2023-08-21T06:09:40;19.70;99.90
13652;DHT22;6899;51.546;6.912;2023-08-21T06:12:07;20.00;99.90
13652;DHT22;6899;51.546;6.912;2023-08-21T06:14:34;20.70;99.90
13652;DHT22;6899;51.546;6.912;2023-08-21T06:17:03;21.20;99.90
13652;DHT22;6899;51.546;6.912;2023-08-21T06:19:30;21.80;99.90
13652;DHT22;6899;51.546;6.912;2023-08-21T06:21:57;22.10;99.90
13652;DHT22;6899;51.546;6.912;2023-08-21T06:24:24;23.10;99.90
13652;DHT22;6899;51.546;6.912;2023-08-21T06:26:51;23.70;99.90
13652;DHT22;6899;51.546;6.912;2023-08-21T06:29:18;24.40;99.90
13652;DHT22;6899;51.546;6.912;2023-08-21T06:31:46;25.30;99.90
13652;DHT22;6899;51.546;6.912;2023-08-21T06:34:14;25.70;99.90
13652;DHT22;6899;51.546;6.912;2023-08-21T06:36:41;25.20;99.90
13652;DHT22;6899;51.546;6.912;2023-08-21T06:39:08;24.80;99.90
13652;DHT22;6899;51.546;6.912;2023-08-21T06:41:34;24.20;99.90
13652;DHT22;6899;51.546;6.912;2023-08-21T06:44:01;23.80;99.90
13652;DHT22;6899;51.546;6.912;2023-08-21T06:46:31;23.80;99.90
13652;DHT22;6899;51.546;6.912;2023-08-21T06:48:58;24.40;99.90
13652;DHT22;6899;51.546;6.912;2023-08-21T06:51:26;25.30;99.90
13652;DHT22;6899;51.546;6.912;2023-08-21T06:53:52;26.00;99.90
13652;DHT22;6899;51.546;6.912;2023-08-21T06:56:22;26.20;99.90
13652;DHT22;6899;51.546;6.912;2023-08-21T06:58:49;25.90;99.90
13652;DHT22;6899;51.546;6.912;2023-08-21T07:01:16;25.80;99.90
13652;DHT22;6899;51.546;6.912;2023-08-21T07:03:43;25.70;99.90
13652;DHT22;6899;51.546;6.912;2023-08-21T07:06:10;25.40;99.90
13652;DHT22;6899;51.546;6.912;2023-08-21T07:08:38;25.20;99.90
13652;DHT22;6899;51.546;6.912;2023-08-21T07:11:06;25.50;99.90
13652;DHT22;6899;51.546;6.912;2023-08-21T07:13:35;26.70;99.90
13652;DHT22;6899;51.546;6.912;2023-08-21T07:16:02;27.50;99.90
13652;DHT22;6899;51.546;6.912;2023-08-21T07:18:33;27.80;99.90
13652;DHT22;6899;51.546;6.912;2023-08-21T07:21:00;28.20;99.80
13652;DHT22;6899;51.546;6.912;2023-08-21T07:23:26;28.00;99.90
13652;DHT22;6899;51.546;6.912;2023-08-21T07:25:55;27.90;99.90
13652;DHT22;6899;51.546;6.912;2023-08-21T07:28:22;27.60;99.90
13652;DHT22;6899;51.546;6.912;2023-08-21T07:30:54;27.10;99.90
13652;DHT22;6899;51.546;6.912;2023-08-21T07:33:22;26.60;99.90
13652;DHT22;6899;51.546;6.912;2023-08-21T07:35:57;26.00;99.90
13652;DHT22;6899;51.546;6.912;2023-08-21T07:38:24;26.30;99.90
13652;DHT22;6899;51.546;6.912;2023-08-21T07:40:51;27.20;99.90
13652;DHT22;6899;51.546;6.912;2023-08-21T07:43:19;28.10;99.90
13652;DHT22;6899;51.546;6.912;2023-08-21T07:45:46;28.50;99.90
13652;DHT22;6899;51.546;6.912;2023-08-21T07:48:13;28.80;98.00
13652;DHT22;6899;51.546;6.912;2023-08-21T07:50:39;28.90;97.70
13652;DHT22;6899;51.546;6.912;2023-08-21T07:53:06;28.80;97.00
13652;DHT22;6899;51.546;6.912;2023-08-21T07:55:33;28.50;97.10
13652;DHT22;6899;51.546;6.912;2023-08-21T07:58:00;28.10;99.00
13652;DHT22;6899;51.546;6.912;2023-08-21T08:00:28;27.50;99.10
13652;DHT22;6899;51.546;6.912;2023-08-21T08:02:55;27.20;99.90
13652;DHT22;6899;51.546;6.912;2023-08-21T08:05:22;27.70;98.80
13652;DHT22;6899;51.546;6.912;2023-08-21T08:07:48;27.90;97.30
13652;DHT22;6899;51.546;6.912;2023-08-21T08:10:15;27.90;97.40
13652;DHT22;6899;51.546;6.912;2023-08-21T08:12:42;28.00;99.80
13652;DHT22;6899;51.546;6.912;2023-08-21T08:15:10;28.70;97.80
13652;DHT22;6899;51.546;6.912;2023-08-21T08:17:38;28.60;95.80
13652;DHT22;6899;51.546;6.912;2023-08-21T08:20:05;28.80;95.50
13652;DHT22;6899;51.546;6.912;2023-08-21T08:22:32;28.90;94.90
13652;DHT22;6899;51.546;6.912;2023-08-21T08:24:59;29.10;93.60
13652;DHT22;6899;51.546;6.912;2023-08-21T08:27:26;29.40;96.10
13652;DHT22;6899;51.546;6.912;2023-08-21T08:29:53;29.60;92.30
13652;DHT22;6899;51.546;6.912;2023-08-21T08:32:20;29.50;92.40
13652;DHT22;6899;51.546;6.912;2023-08-21T08:34:48;29.60;91.90
13652;DHT22;6899;51.546;6.912;2023-08-21T08:37:15;29.50;93.20
13652;DHT22;6899;51.546;6.912;2023-08-21T08:39:42;29.40;92.70
13652;DHT22;6899;51.546;6.912;2023-08-21T08:42:09;29.30;91.50
13652;DHT22;6899;51.546;6.912;2023-08-21T08:44:37;29.40;91.60
13652;DHT22;6899;51.546;6.912;2023-08-21T08:47:04;29.60;92.40
13652;DHT22;6899;51.546;6.912;2023-08-21T08:49:31;29.80;91.30
13652;DHT22;6899;51.546;6.912;2023-08-21T08:52:00;29.80;89.80
13652;DHT22;6899;51.546;6.912;2023-08-21T08:54:27;29.40;88.20
13652;DHT22;6899;51.546;6.912;2023-08-21T08:56:54;29.50;90.70
13652;DHT22;6899;51.546;6.912;2023-08-21T08:59:21;29.80;86.60
13652;DHT22;6899;51.546;6.912;2023-08-21T09:01:48;29.70;91.50
13652;DHT22;6899;51.546;6.912;2023-08-21T09:04:14;29.70;88.20
13652;DHT22;6899;51.546;6.912;2023-08-21T09:06:41;29.40;84.60
13652;DHT22;6899;51.546;6.912;2023-08-21T09:09:09;29.20;84.30
13652;DHT22;6899;51.546;6.912;2023-08-21T09:11:42;29.00;89.10
13652;DHT22;6899;51.546;6.912;2023-08-21T09:14:10;29.00;85.80
13652;DHT22;6899;51.546;6.912;2023-08-21T09:16:37;29.10;88.80
13652;DHT22;6899;51.546;6.912;2023-08-21T09:19:04;29.30;87.30
13652;DHT22;6899;51.546;6.912;2023-08-21T09:21:31;29.20;85.80
13652;DHT22;6899;51.546;6.912;2023-08-21T09:23:59;29.40;88.90
13652;DHT22;6899;51.546;6.912;2023-08-21T09:26:30;29.50;85.50
13652;DHT22;6899;51.546;6.912;2023-08-21T09:28:59;29.60;84.90
13652;DHT22;6899;51.546;6.912;2023-08-21T09:31:30;29.70;84.30
13652;DHT22;6899;51.546;6.912;2023-08-21T09:33:57;29.70;83.40
13652;DHT22;6899;51.546;6.912;2023-08-21T09:36:26;29.70;86.70
13652;DHT22;6899;51.546;6.912;2023-08-21T09:38:54;29.80;85.30
13652;DHT22;6899;51.546;6.912;2023-08-21T09:41:21;29.70;84.00
13652;DHT22;6899;51.546;6.912;2023-08-21T09:43:49;29.50;84.10
13652;DHT22;6899;51.546;6.912;2023-08-21T09:46:17;29.30;84.00
13652;DHT22;6899;51.546;6.912;2023-08-21T09:48:45;29.20;85.20
13652;DHT22;6899;51.546;6.912;2023-08-21T09:51:12;29.40;85.00
13652;DHT22;6899;51.546;6.912;2023-08-21T09:53:40;29.10;85.00
13652;DHT22;6899;51.546;6.912;2023-08-21T09:56:07;29.00;87.40
13652;DHT22;6899;51.546;6.912;2023-08-21T09:58:35;28.90;86.90
13652;DHT22;6899;51.546;6.912;2023-08-21T10:01:05;29.00;86.70
13652;DHT22;6899;51.546;6.912;2023-08-21T10:03:38;29.00;88.30
13652;DHT22;6899;51.546;6.912;2023-08-21T10:06:07;29.10;87.80
13652;DHT22;6899;51.546;6.912;2023-08-21T10:08:37;29.20;89.10
13652;DHT22;6899;51.546;6.912;2023-08-21T10:11:06;29.10;86.50
13652;DHT22;6899;51.546;6.912;2023-08-21T10:13:34;29.30;85.00
13652;DHT22;6899;51.546;6.912;2023-08-21T10:16:04;29.00;86.00
13652;DHT22;6899;51.546;6.912;2023-08-21T10:18:32;29.40;88.90
13652;DHT22;6899;51.546;6.912;2023-08-21T10:21:11;29.40;85.10
13652;DHT22;6899;51.546;6.912;2023-08-21T10:23:39;29.20;85.10
13652;DHT22;6899;51.546;6.912;2023-08-21T10:26:10;29.30;87.30
13652;DHT22;6899;51.546;6.912;2023-08-21T10:28:48;29.20;82.30
13652;DHT22;6899;51.546;6.912;2023-08-21T10:31:33;29.30;87.20
13652;DHT22;6899;51.546;6.912;2023-08-21T10:34:02;29.40;84.60
13652;DHT22;6899;51.546;6.912;2023-08-21T10:39:39;29.90;80.70
13652;DHT22;6899;51.546;6.912;2023-08-21T10:42:09;29.80;80.20
13652;DHT22;6899;51.546;6.912;2023-08-21T10:44:53;30.00;79.10
13652;DHT22;6899;51.546;6.912;2023-08-21T10:47:32;29.90;87.50
13652;DHT22;6899;51.546;6.912;2023-08-21T10:50:02;30.10;80.80
13652;DHT22;6899;51.546;6.912;2023-08-21T10:52:31;29.90;79.90
13652;DHT22;6899;51.546;6.912;2023-08-21T10:55:01;30.10;85.50
13652;DHT22;6899;51.546;6.912;2023-08-21T10:57:30;30.10;79.80
13652;DHT22;6899;51.546;6.912;2023-08-21T10:59:59;30.00;85.40
13652;DHT22;6899;51.546;6.912;2023-08-21T11:02:28;29.70;80.90
13652;DHT22;6899;51.546;6.912;2023-08-21T11:04:55;30.10;82.70
13652;DHT22;6899;51.546;6.912;2023-08-21T11:07:22;30.30;83.10
13652;DHT22;6899;51.546;6.912;2023-08-21T11:09:49;30.10;81.40
13652;DHT22;6899;51.546;6.912;2023-08-21T11:12:17;30.40;76.30
13652;DHT22;6899;51.546;6.912;2023-08-21T11:14:44;30.40;76.80
13652;DHT22;6899;51.546;6.912;2023-08-21T11:17:12;30.30;77.40
13652;DHT22;6899;51.546;6.912;2023-08-21T11:19:41;30.30;78.60
13652;DHT22;6899;51.546;6.912;2023-08-21T11:22:08;30.40;77.20
13652;DHT22;6899;51.546;6.912;2023-08-21T11:24:43;30.30;77.90
13652;DHT22;6899;51.546;6.912;2023-08-21T11:27:12;30.50;74.00
13652;DHT22;6899;51.546;6.912;2023-08-21T11:29:41;30.60;74.00
13652;DHT22;6899;51.546;6.912;2023-08-21T11:32:09;30.80;75.40
13652;DHT22;6899;51.546;6.912;2023-08-21T11:34:36;31.20;71.70
13652;DHT22;6899;51.546;6.912;2023-08-21T11:37:05;31.00;69.30
13652;DHT22;6899;51.546;6.912;2023-08-21T11:39:45;31.20;73.90
13652;DHT22;6899;51.546;6.912;2023-08-21T11:42:13;31.50;70.60
13652;DHT22;6899;51.546;6.912;2023-08-21T11:44:44;30.90;70.80
13652;DHT22;6899;51.546;6.912;2023-08-21T11:47:12;30.60;71.70
13652;DHT22;6899;51.546;6.912;2023-08-21T11:49:39;30.60;77.40
13652;DHT22;6899;51.546;6.912;2023-08-21T11:52:09;30.80;76.90
13652;DHT22;6899;51.546;6.912;2023-08-21T11:54:37;30.70;75.20
13652;DHT22;6899;51.546;6.912;2023-08-21T11:57:06;30.40;77.80
13652;DHT22;6899;51.546;6.912;2023-08-21T11:59:36;30.20;75.80
13652;DHT22;6899;51.546;6.912;2023-08-21T12:02:14;30.40;76.60
13652;DHT22;6899;51.546;6.912;2023-08-21T12:04:41;30.20;72.00
13652;DHT22;6899;51.546;6.912;2023-08-21T12:07:09;30.00;81.70
13652;DHT22;6899;51.546;6.912;2023-08-21T12:09:35;29.90;77.10
13652;DHT22;6899;51.546;6.912;2023-08-21T12:12:03;29.80;75.40
13652;DHT22;6899;51.546;6.912;2023-08-21T12:14:30;30.60;75.90
13652;DHT22;6899;51.546;6.912;2023-08-21T12:16:57;30.90;72.50
13652;DHT22;6899;51.546;6.912;2023-08-21T12:19:24;31.20;71.10
13652;DHT22;6899;51.546;6.912;2023-08-21T12:21:50;31.00;74.70
13652;DHT22;6899;51.546;6.912;2023-08-21T12:24:19;30.90;71.30
13652;DHT22;6899;51.546;6.912;2023-08-21T12:26:45;31.10;71.00
13652;DHT22;6899;51.546;6.912;2023-08-21T12:29:12;31.10;71.30
13652;DHT22;6899;51.546;6.912;2023-08-21T12:31:39;31.50;77.30
13652;DHT22;6899;51.546;6.912;2023-08-21T12:34:06;31.60;78.00
13652;DHT22;6899;51.546;6.912;2023-08-21T12:36:34;31.90;68.60
13652;DHT22;6899;51.546;6.912;2023-08-21T12:39:02;32.00;68.20
13652;DHT22;6899;51.546;6.912;2023-08-21T12:41:31;32.10;70.20
13652;DHT22;6899;51.546;6.912;2023-08-21T12:44:01;32.60;68.00
13652;DHT22;6899;51.546;6.912;2023-08-21T12:46:28;33.00;67.10
13652;DHT22;6899;51.546;6.912;2023-08-21T12:48:56;33.50;66.00
13652;DHT22;6899;51.546;6.912;2023-08-21T12:51:23;33.60;63.10
13652;DHT22;6899;51.546;6.912;2023-08-21T12:53:49;33.70;61.80
13652;DHT22;6899;51.546;6.912;2023-08-21T12:56:16;33.60;63.40
13652;DHT22;6899;51.546;6.912;2023-08-21T12:58:45;32.50;63.20
13652;DHT22;6899;51.546;6.912;2023-08-21T13:01:12;31.60;66.00
13652;DHT22;6899;51.546;6.912;2023-08-21T13:03:43;30.70;69.40
13652;DHT22;6899;51.546;6.912;2023-08-21T13:06:10;30.20;76.90
13652;DHT22;6899;51.546;6.912;2023-08-21T13:08:37;30.00;76.10
13652;DHT22;6899;51.546;6.912;2023-08-21T13:11:04;29.80;74.50
13652;DHT22;6899;51.546;6.912;2023-08-21T13:13:31;29.60;74.60
13652;DHT22;6899;51.546;6.912;2023-08-21T13:15:59;29.70;76.10
13652;DHT22;6899;51.546;6.912;2023-08-21T13:18:26;30.20;74.60
13652;DHT22;6899;51.546;6.912;2023-08-21T13:20:53;30.60;73.70
13652;DHT22;6899;51.546;6.912;2023-08-21T13:23:20;30.70;71.30
13652;DHT22;6899;51.546;6.912;2023-08-21T13:25:48;30.90;69.30
13652;DHT22;6899;51.546;6.912;2023-08-21T13:28:14;30.80;72.70
13652;DHT22;6899;51.546;6.912;2023-08-21T13:30:41;30.30;77.90
13652;DHT22;6899;51.546;6.912;2023-08-21T13:33:09;30.20;71.20
13652;DHT22;6899;51.546;6.912;2023-08-21T13:35:36;30.40;77.30
13652;DHT22;6899;51.546;6.912;2023-08-21T13:38:03;31.00;76.20
13652;DHT22;6899;51.546;6.912;2023-08-21T13:40:31;31.30;72.90
13652;DHT22;6899;51.546;6.912;2023-08-21T13:42:58;31.90;72.90
13652;DHT22;6899;51.546;6.912;2023-08-21T13:45:25;32.30;68.00
13652;DHT22;6899;51.546;6.912;2023-08-21T13:47:52;32.60;71.70
13652;DHT22;6899;51.546;6.912;2023-08-21T13:50:20;33.10;68.90
13652;DHT22;6899;51.546;6.912;2023-08-21T13:52:47;33.30;66.50
13652;DHT22;6899;51.546;6.912;2023-08-21T13:55:15;33.30;64.40
13652;DHT22;6899;51.546;6.912;2023-08-21T13:57:42;33.50;64.30
13652;DHT22;6899;51.546;6.912;2023-08-21T14:00:10;33.90;63.20
13652;DHT22;6899;51.546;6.912;2023-08-21T14:02:39;33.80;63.90
13652;DHT22;6899;51.546;6.912;2023-08-21T14:05:07;33.30;65.20
13652;DHT22;6899;51.546;6.912;2023-08-21T14:07:35;33.30;62.20
13652;DHT22;6899;51.546;6.912;2023-08-21T14:10:03;33.00;63.80
13652;DHT22;6899;51.546;6.912;2023-08-21T14:12:30;32.90;68.80
13652;DHT22;6899;51.546;6.912;2023-08-21T14:14:58;33.10;66.00
13652;DHT22;6899;51.546;6.912;2023-08-21T14:17:25;33.10;66.30
13652;DHT22;6899;51.546;6.912;2023-08-21T14:19:52;33.10;63.30
13652;DHT22;6899;51.546;6.912;2023-08-21T14:22:18;33.20;61.80
13652;DHT22;6899;51.546;6.912;2023-08-21T14:24:47;32.70;65.10
13652;DHT22;6899;51.546;6.912;2023-08-21T14:27:13;32.50;66.60
13652;DHT22;6899;51.546;6.912;2023-08-21T14:29:42;32.30;69.70
13652;DHT22;6899;51.546;6.912;2023-08-21T14:32:09;31.70;67.40
13652;DHT22;6899;51.546;6.912;2023-08-21T14:34:36;31.70;65.00
13652;DHT22;6899;51.546;6.912;2023-08-21T14:37:03;32.00;62.20
13652;DHT22;6899;51.546;6.912;2023-08-21T14:39:30;32.50;63.20
13652;DHT22;6899;51.546;6.912;2023-08-21T14:41:59;32.70;63.90
13652;DHT22;6899;51.546;6.912;2023-08-21T14:44:26;32.80;63.90
13652;DHT22;6899;51.546;6.912;2023-08-21T14:46:54;33.10;63.60
13652;DHT22;6899;51.546;6.912;2023-08-21T14:49:21;33.50;61.90
13652;DHT22;6899;51.546;6.912;2023-08-21T14:51:48;34.10;59.20
13652;DHT22;6899;51.546;6.912;2023-08-21T14:54:15;34.10;59.20
13652;DHT22;6899;51.546;6.912;2023-08-21T14:56:41;34.00;61.70
13652;DHT22;6899;51.546;6.912;2023-08-21T14:59:10;33.40;61.20
13652;DHT22;6899;51.546;6.912;2023-08-21T15:01:37;33.30;59.00
13652;DHT22;6899;51.546;6.912;2023-08-21T15:04:05;33.50;64.20
13652;DHT22;6899;51.546;6.912;2023-08-21T15:06:32;33.50;61.20
13652;DHT22;6899;51.546;6.912;2023-08-21T15:08:59;33.70;62.90
13652;DHT22;6899;51.546;6.912;2023-08-21T15:11:25;33.50;60.30
13652;DHT22;6899;51.546;6.912;2023-08-21T15:13:52;33.30;60.30
13652;DHT22;6899;51.546;6.912;2023-08-21T15:16:20;33.60;62.40
13652;DHT22;6899;51.546;6.912;2023-08-21T15:18:47;34.00;60.90
13652;DHT22;6899;51.546;6.912;2023-08-21T15:21:17;34.00;57.30
13652;DHT22;6899;51.546;6.912;2023-08-21T15:23:44;33.90;61.60
13652;DHT22;6899;51.546;6.912;2023-08-21T15:26:11;33.30;60.80
13652;DHT22;6899;51.546;6.912;2023-08-21T15:28:38;33.50;62.50
13652;DHT22;6899;51.546;6.912;2023-08-21T15:31:04;34.10;62.90
13652;DHT22;6899;51.546;6.912;2023-08-21T15:33:34;34.70;60.70
13652;DHT22;6899;51.546;6.912;2023-08-21T15:36:00;34.30;58.00
13652;DHT22;6899;51.546;6.912;2023-08-21T15:38:27;34.10;60.30
13652;DHT22;6899;51.546;6.912;2023-08-21T15:40:54;34.60;58.00
13652;DHT22;6899;51.546;6.912;2023-08-21T15:43:21;33.90;59.60
13652;DHT22;6899;51.546;6.912;2023-08-21T15:45:48;34.20;57.40
13652;DHT22;6899;51.546;6.912;2023-08-21T15:48:14;34.20;58.00
13652;DHT22;6899;51.546;6.912;2023-08-21T15:50:42;34.10;57.60